Time;durP1;ratioP1;P1;durP2;ratioP2;P2;SDS_P1;SDS_P2;PMS_P1;PMS_P2;Temp;Humidity;BMP_temperature;BMP_pressure;BME280_temperature;BME280_humidity;BME280_pressure;Samples;Min_cycle;Max_cycle;Signal;HPM_P1;HPM_P2
2022/12/08 00:02:01;;;;;;;9.15;6.00;;;7.40;99.90;;;7.65;84.30;100987.78;5113198;28;20119;-67
2022/12/08 00:09:20;;;;;;;13.88;6.35;;;7.50;99.90;;;7.68;84.42;100979.03;5113739;28;20046;-67
2022/12/08 00:10:02;;;;;;;8.55;6.22;;;7.50;99.90;;;7.70;84.20;100965.03;5068792;28;20066;-67
2022/12/08 00:12:50;;;;;;;10.05;6.40;;;7.50;99.90;;;7.70;84.38;100958.88;5113207;28;20040;-67
2022/12/08 00:15:18;;;;;;;7.30;5.70;;;7.50;99.90;;;7.67;84.13;100935.13;5094796;28;20047;-67
2022/12/08 00:17:47;;;;;;;7.07;5.72;;;7.60;99.90;;;7.76;83.79;100948.41;5113009;28;20059;-67
2022/12/08 00:20:15;;;;;;;6.18;5.63;;;7.60;99.90;;;7.79;83.60;100935.25;5113293;28;20036;-67
2022/12/08 00:22:45;;;;;;;7.75;5.93;;;7.60;99.90;;;7.75;83.78;100931.72;5112987;28;20040;-67
2022/12/08 00:25:13;;;;;;;7.72;5.90;;;7.60;99.90;;;7.82;83.59;100933.50;5112891;28;20126;-67
2022/12/08 00:27:41;;;;;;;7.50;5.45;;;7.60;99.90;;;7.81;83.33;100926.50;5112795;28;20077;-66
2022/12/08 00:30:11;;;;;;;6.07;5.57;;;7.60;99.90;;;7.82;83.15;100917.72;5112894;28;20059;-67
2022/12/08 00:32:39;;;;;;;6.63;5.07;;;7.60;99.90;;;7.84;82.76;100912.47;5112848;28;20044;-68
2022/12/08 00:35:08;;;;;;;5.65;5.05;;;7.60;99.90;;;7.85;83.07;100911.59;5112948;28;20052;-67
2022/12/08 00:37:36;;;;;;;8.38;4.97;;;7.70;99.90;;;7.86;82.71;100915.97;5113218;28;20493;-66
2022/12/08 00:40:08;;;;;;;6.72;5.43;;;7.60;99.90;;;7.85;82.95;100907.22;5113204;28;20040;-66
2022/12/08 00:42:37;;;;;;;4.80;4.32;;;7.70;99.90;;;7.88;82.91;100914.25;5112999;28;20101;-67
2022/12/08 00:45:06;;;;;;;5.28;4.25;;;7.70;99.90;;;7.91;82.51;100907.28;5113119;28;20040;-67
2022/12/08 00:47:35;;;;;;;4.95;4.30;;;7.70;99.90;;;7.95;82.90;100908.16;5113054;28;20397;-66
2022/12/08 00:50:04;;;;;;;7.28;4.43;;;7.70;99.90;;;7.45;83.04;100810.44;5112842;28;20042;-66
2022/12/08 00:52:32;;;;;;;4.88;4.43;;;7.80;99.90;;;8.03;83.28;100898.56;5113473;28;20036;-67
2022/12/08 00:55:01;;;;;;;8.52;4.03;;;7.80;99.90;;;8.07;82.81;100893.31;5113066;28;20093;-66
2022/12/08 00:57:30;;;;;;;5.05;4.00;;;7.90;99.90;;;7.85;82.80;100870.34;5113055;28;20051;-67
2022/12/08 00:59:59;;;;;;;5.20;3.87;;;7.90;99.90;;;8.13;82.61;100893.34;5094668;28;20048;-67
2022/12/08 01:02:27;;;;;;;4.80;4.22;;;7.90;99.90;;;8.20;82.59;100891.63;5112702;28;20354;-66
2022/12/08 01:04:55;;;;;;;5.72;3.83;;;7.90;99.90;;;8.26;82.84;100888.19;5095945;28;20560;-67
2022/12/08 01:07:24;;;;;;;6.03;4.05;;;8.00;99.90;;;8.31;82.28;100894.34;5116505;28;20468;-67
2022/12/08 01:09:52;;;;;;;4.95;4.30;;;8.10;99.90;;;8.01;82.16;100889.78;5116695;28;20404;-62
2022/12/08 01:12:20;;;;;;;6.82;5.15;;;7.90;99.90;;;8.19;82.57;100908.31;5098787;28;20130;-62
2022/12/08 01:14:50;;;;;;;7.35;4.45;;;7.90;99.90;;;8.29;82.55;100902.25;5116746;28;20481;-62
2022/12/08 01:17:18;;;;;;;4.80;4.40;;;8.00;99.90;;;8.36;82.23;100900.53;5116646;28;20408;-64
2022/12/08 01:19:46;;;;;;;8.05;4.72;;;8.10;99.90;;;8.30;82.20;100868.88;5117000;28;20044;-64
2022/12/08 01:22:15;;;;;;;5.53;4.43;;;8.20;99.90;;;8.46;81.76;100889.16;5117243;28;20071;-64
2022/12/08 01:24:43;;;;;;;4.97;4.32;;;8.20;99.90;;;8.48;81.64;100885.66;5117171;28;20130;-62
2022/12/08 01:27:11;;;;;;;6.30;4.22;;;8.30;99.90;;;8.33;81.37;100855.72;5116688;28;20036;-62
2022/12/08 01:29:39;;;;;;;6.80;4.35;;;8.30;99.90;;;8.54;81.34;100890.06;5116730;28;20481;-62
2022/12/08 01:32:09;;;;;;;8.13;4.78;;;8.30;99.90;;;8.45;81.04;100868.94;5116793;28;20055;-62
2022/12/08 01:34:38;;;;;;;11.13;4.90;;;8.40;99.90;;;8.59;81.40;100885.69;5116422;28;20409;-62
2022/12/08 01:37:06;;;;;;;6.07;4.63;;;8.40;99.90;;;8.65;80.92;100888.38;5116906;28;20043;-62
2022/12/08 01:39:35;;;;;;;6.72;3.97;;;8.40;99.90;;;8.66;80.44;100874.28;5116855;28;20043;-62
2022/12/08 01:42:03;;;;;;;8.18;4.25;;;8.40;99.90;;;8.71;79.90;100873.44;5116212;28;20047;-62
2022/12/08 01:44:57;;;;;;;6.13;4.22;;;8.50;99.90;;;8.70;79.31;100871.69;5098190;28;20078;-62
2022/12/08 01:47:34;;;;;;;6.53;3.85;;;8.50;99.90;;;8.56;78.83;100873.38;5116358;28;20044;-62
2022/12/08 01:50:07;;;;;;;6.63;4.25;;;8.40;99.90;;;7.97;78.16;100749.31;5116198;28;20050;-63
2022/12/08 01:52:41;;;;;;;5.95;3.60;;;8.40;99.90;;;8.39;78.12;100832.03;5116131;28;20044;-62
2022/12/08 01:55:16;;;;;;;6.13;4.13;;;8.30;99.90;;;8.51;78.22;100867.22;5116334;28;20046;-62
2022/12/08 01:57:47;;;;;;;6.35;3.80;;;8.30;99.90;;;8.48;78.95;100861.91;5116273;28;20054;-62
2022/12/08 02:00:20;;;;;;;6.40;4.03;;;8.20;99.90;;;8.42;79.02;100855.75;5116264;28;20075;-62
2022/12/08 02:02:56;;;;;;;5.65;3.92;;;8.20;99.90;;;8.04;79.57;100830.09;5115927;28;20047;-62
2022/12/08 02:05:28;;;;;;;14.00;4.13;;;8.00;99.90;;;8.01;80.79;100860.81;5115752;28;20040;-64
2022/12/08 02:07:58;;;;;;;9.68;3.90;;;7.90;99.90;;;8.05;81.49;100862.59;5115682;28;20044;-61
2022/12/08 02:10:30;;;;;;;9.07;4.23;;;7.80;99.90;;;7.81;82.46;100875.59;5116304;28;20035;-62
2022/12/08 02:13:00;;;;;;;5.47;3.63;;;7.80;99.90;;;7.65;82.83;100864.06;5115663;28;20485;-62
2022/12/08 02:15:49;;;;;;;6.28;3.58;;;7.60;99.90;;;7.67;83.34;100872.84;5115140;28;20429;-62
2022/12/08 02:18:40;;;;;;;10.40;3.90;;;7.50;99.90;;;7.44;84.11;100856.00;5115271;28;20399;-62
2022/12/08 02:21:14;;;;;;;8.38;4.32;;;7.40;99.90;;;7.29;86.22;100853.25;5097134;28;20055;-62
2022/12/08 02:23:52;;;;;;;8.70;3.88;;;7.20;99.90;;;7.23;86.29;100859.34;5115493;28;20044;-62
2022/12/08 02:27:18;;;;;;;8.50;4.20;;;7.10;99.90;;;7.13;86.74;100828.56;5115432;28;20398;-61
2022/12/08 02:30:07;;;;;;;11.52;3.83;;;7.20;99.90;;;7.20;86.32;100847.94;5115951;28;20069;-61
2022/12/08 02:33:23;;;;;;;7.88;4.72;;;7.10;99.90;;;7.29;86.38;100850.63;5074948;28;20041;-62
2022/12/08 02:35:58;;;;;;;8.15;3.67;;;7.10;99.90;;;6.94;86.59;100839.78;5074902;28;20045;-61
2022/12/08 02:38:44;;;;;;;6.13;3.88;;;6.90;99.90;;;7.05;86.82;100818.84;5074537;28;20054;-61
2022/12/08 02:41:25;;;;;;;7.20;3.65;;;6.90;99.90;;;7.07;86.12;100814.47;5074489;28;20114;-62
2022/12/08 02:44:01;;;;;;;4.80;3.50;;;6.90;99.90;;;7.09;85.91;100820.63;5074745;28;20059;-62
2022/12/08 02:46:33;;;;;;;6.32;3.78;;;6.90;99.90;;;7.16;85.92;100815.44;5074761;28;20064;-61
2022/12/08 02:49:03;;;;;;;3.70;3.40;;;7.00;99.90;;;7.17;86.17;100813.69;5074265;28;20053;-61
2022/12/08 02:51:33;;;;;;;;;;;7.00;99.90;;;7.37;85.81;100812.13;5074774;28;20071;-61
2022/12/08 02:54:03;;;;;;;5.85;3.65;;;7.20;99.90;;;7.41;85.40;100808.63;5074246;28;19920;-62
2022/12/08 02:56:52;;;;;;;4.68;3.63;;;7.20;99.90;;;7.44;85.26;100808.66;5072890;28;20144;-62
2022/12/08 02:59:48;;;;;;;8.38;3.75;;;7.30;99.90;;;7.21;85.77;100811.13;5074163;28;20050;-62
2022/12/08 03:02:39;;;;;;;8.82;4.10;;;7.10;99.90;;;7.22;86.24;100811.97;5074379;28;20045;-62
2022/12/08 03:05:23;;;;;;;12.20;4.63;;;7.10;99.90;;;6.96;87.53;100805.63;5073953;28;20048;-61
2022/12/08 03:08:01;;;;;;;5.43;4.35;;;6.80;99.90;;;6.94;86.60;100774.06;5073865;28;20478;-62
2022/12/08 03:10:37;;;;;;;6.90;4.05;;;6.90;99.90;;;6.94;86.93;100795.09;5074237;28;20068;-61
2022/12/08 03:13:10;;;;;;;8.27;4.32;;;6.90;99.90;;;6.66;86.55;100703.72;5073877;28;20055;-62
2022/12/08 03:15:40;;;;;;;4.63;3.97;;;6.90;99.90;;;7.12;86.02;100783.88;5074200;28;20071;-62
2022/12/08 03:18:13;;;;;;;14.02;4.82;;;6.90;99.90;;;7.20;85.50;100780.41;5074418;28;20044;-62
2022/12/08 03:20:44;;;;;;;9.48;4.32;;;7.10;99.90;;;7.36;85.46;100778.75;5072727;28;20513;-62
2022/12/08 03:23:16;;;;;;;13.60;4.40;;;7.20;99.90;;;7.32;86.40;100771.72;5072720;28;20078;-62
2022/12/08 03:25:52;;;;;;;11.88;4.47;;;7.20;99.90;;;7.21;86.76;100768.16;5073647;28;20546;-61
2022/12/08 03:28:21;;;;;;;12.07;4.70;;;7.20;99.90;;;7.48;87.60;100777.97;5072180;28;20049;-62
2022/12/08 03:30:54;;;;;;;12.70;4.43;;;7.30;99.90;;;7.27;87.72;100776.09;5090853;28;20058;-62
2022/12/08 03:33:26;;;;;;;11.02;4.88;;;7.20;99.90;;;7.22;87.48;100755.00;5114332;28;20146;-61
2022/12/08 03:35:55;;;;;;;10.35;4.65;;;7.20;99.90;;;7.29;87.04;100771.72;5114120;28;20477;-62
2022/12/08 03:38:25;;;;;;;9.68;4.63;;;7.20;99.90;;;7.38;87.23;100774.41;5114018;28;20046;-62
2022/12/08 03:43:36;;;;;;;11.10;4.80;;;7.30;99.90;;;7.57;86.18;100768.38;5113087;28;20075;-62
2022/12/08 03:46:05;;;;;;;11.23;5.03;;;7.40;99.90;;;7.68;86.08;100765.81;5113874;28;20474;-62
2022/12/08 03:48:33;;;;;;;12.25;4.68;;;7.50;99.90;;;7.70;85.45;100759.69;5114062;28;20051;-62
2022/12/08 03:51:01;;;;;;;7.22;4.47;;;7.50;99.90;;;7.72;85.09;100763.22;5114082;28;20036;-62
2022/12/08 03:53:31;;;;;;;11.70;4.40;;;7.60;99.90;;;7.78;84.20;100776.38;5114113;28;20043;-62
2022/12/08 03:55:59;;;;;;;8.50;4.90;;;7.60;99.90;;;7.44;82.69;100761.28;5113700;28;20116;-62
2022/12/08 03:58:28;;;;;;;5.53;4.28;;;7.40;99.90;;;7.09;82.05;100763.66;5113674;28;20507;-62
2022/12/08 04:01:04;;;;;;;4.00;3.80;;;7.10;99.90;;;7.11;81.91;100755.78;5113685;28;20043;-61
2022/12/08 04:03:32;;;;;;;5.53;4.68;;;7.00;99.90;;;6.86;81.49;100720.53;5113644;28;20031;-62
2022/12/08 04:06:00;;;;;;;4.55;4.25;;;6.90;99.90;;;7.10;81.22;100760.16;5113535;28;20047;-62
2022/12/08 04:08:29;;;;;;;6.88;3.42;;;7.00;99.90;;;6.55;81.37;100762.28;5113461;28;20374;-61
2022/12/08 04:10:58;;;;;;;6.10;4.32;;;6.60;99.90;;;6.09;83.68;100768.81;5113751;28;20036;-62
2022/12/08 04:13:27;;;;;;;8.10;4.10;;;6.20;99.90;;;5.87;85.29;100765.03;5113790;28;20039;-62
2022/12/08 04:15:55;;;;;;;7.20;4.13;;;5.90;99.90;;;5.78;85.52;100767.50;5113740;28;20277;-61
2022/12/08 04:18:24;;;;;;;7.38;3.90;;;5.70;99.90;;;5.44;86.37;100766.16;5114007;28;20071;-62
2022/12/08 04:20:53;;;;;;;5.07;4.43;;;5.40;99.90;;;5.47;86.77;100762.69;5113896;28;20477;-62
2022/12/08 04:23:21;;;;;;;6.55;3.88;;;5.40;99.90;;;5.57;87.63;100745.34;5113300;28;20433;-61
2022/12/08 04:25:51;;;;;;;9.23;4.25;;;5.50;99.90;;;5.52;90.44;100766.25;5113377;28;20031;-62
2022/12/08 04:28:21;;;;;;;6.85;4.20;;;5.50;99.90;;;5.80;91.08;100768.41;5113607;28;20043;-62
2022/12/08 04:30:50;;;;;;;8.40;4.00;;;5.60;99.90;;;5.78;91.86;100770.13;5113780;28;20048;-61
2022/12/08 04:33:18;;;;;;;4.80;3.75;;;5.70;99.90;;;5.48;91.89;100770.59;5113579;28;20055;-62
2022/12/08 04:35:46;;;;;;;6.60;3.92;;;5.40;99.90;;;5.25;91.94;100739.63;5113330;28;20071;-61
2022/12/08 04:38:15;;;;;;;5.22;3.70;;;5.30;99.90;;;5.53;92.18;100733.94;5113256;28;20066;-62
2022/12/08 04:40:43;;;;;;;9.00;4.47;;;5.40;99.90;;;5.82;91.29;100732.56;5115987;28;20127;-62
2022/12/08 04:43:11;;;;;;;5.90;4.53;;;5.70;99.90;;;5.88;90.91;100714.31;5117669;28;20043;-62
2022/12/08 04:45:42;;;;;;;5.18;4.18;;;5.80;99.90;;;5.84;90.70;100694.16;5117262;28;20048;-62
2022/12/08 04:48:12;;;;;;;6.03;3.90;;;5.90;99.90;;;6.16;91.42;100728.63;5117275;28;20047;-62
2022/12/08 04:50:42;;;;;;;8.05;4.10;;;6.00;99.90;;;6.20;90.60;100733.94;5117303;28;20048;-62
2022/12/08 04:53:13;;;;;;;6.15;4.22;;;6.10;99.90;;;5.87;89.87;100631.19;5117844;28;20047;-62
2022/12/08 04:55:42;;;;;;;;;;;6.30;99.90;;;6.36;89.46;100713.97;5117641;28;20053;-62
2022/12/08 04:58:13;;;;;;;10.85;4.40;;;6.30;99.90;;;6.31;89.53;100687.63;5117363;28;20329;-62
2022/12/08 05:00:43;;;;;;;4.88;3.90;;;6.30;99.90;;;6.33;90.80;100713.91;5117091;28;20055;-62
2022/12/08 05:03:13;;;;;;;7.78;4.00;;;6.20;99.90;;;6.45;90.60;100711.41;5117643;28;20075;-62
2022/12/08 05:05:42;;;;;;;9.07;3.88;;;6.30;99.90;;;6.31;90.60;100682.38;5117550;28;20043;-63
2022/12/08 05:08:11;;;;;;;6.38;3.80;;;6.30;99.90;;;6.64;91.08;100704.59;5116898;28;20224;-62
2022/12/08 05:10:39;;;;;;;7.95;3.65;;;6.50;99.90;;;6.58;90.85;100709.78;5117100;28;20036;-62
2022/12/08 05:13:07;;;;;;;7.35;4.38;;;6.40;99.90;;;6.76;90.86;100707.28;5117101;28;20152;-62
2022/12/08 05:15:35;;;;;;;6.43;3.83;;;6.60;99.90;;;6.66;89.78;100702.88;5117027;28;20044;-62
2022/12/08 05:18:06;;;;;;;6.10;3.88;;;6.60;99.90;;;6.62;89.23;100708.94;5116712;28;20039;-62
2022/12/08 05:20:35;;;;;;;6.10;3.30;;;6.50;99.90;;;6.70;87.94;100705.50;5116720;28;20493;-62
2022/12/08 05:23:03;;;;;;;6.20;3.80;;;6.50;99.90;;;6.56;87.30;100688.75;5116605;28;20550;-62
2022/12/08 05:25:32;;;;;;;11.95;5.43;;;6.50;99.90;;;6.57;85.98;100708.00;5116787;28;20048;-61
2022/12/08 05:28:00;;;;;;;5.30;4.60;;;6.50;99.90;;;5.92;85.55;100626.84;5116457;28;20069;-62
2022/12/08 05:30:48;;;;;;;7.22;3.78;;;6.40;99.90;;;6.11;87.79;100693.56;5116493;28;20489;-62
2022/12/08 05:33:18;;;;;;;9.30;3.90;;;6.10;99.90;;;6.01;89.77;100708.34;5116998;28;20051;-62
2022/12/08 05:35:46;;;;;;;13.67;4.60;;;6.00;99.90;;;5.85;91.35;100705.50;5116371;28;20040;-62
2022/12/08 05:38:15;;;;;;;8.10;3.92;;;5.80;99.90;;;5.69;92.22;100711.41;5116328;28;20281;-62
2022/12/08 05:40:43;;;;;;;9.38;3.95;;;5.60;99.90;;;5.69;92.71;100708.78;5116564;28;20115;-64
2022/12/08 05:43:11;;;;;;;7.70;3.85;;;5.60;99.90;;;5.52;93.02;100712.94;5116261;28;20047;-62
2022/12/08 05:45:39;;;;;;;10.23;4.30;;;5.40;99.90;;;5.54;92.92;100717.31;5116467;28;20126;-62
2022/12/08 05:48:08;;;;;;;8.00;4.03;;;5.40;99.90;;;5.53;93.29;100714.69;5116391;28;20036;-61
2022/12/08 05:50:37;;;;;;;7.38;4.40;;;5.40;99.90;;;5.52;92.78;100705.06;5115990;28;20040;-61
2022/12/08 05:53:06;;;;;;;7.38;4.75;;;5.50;99.90;;;5.59;92.79;100710.41;5116041;28;20413;-61
2022/12/08 05:55:34;;;;;;;7.30;4.35;;;5.50;99.90;;;5.62;92.58;100722.66;5116231;28;20044;-62
2022/12/08 05:58:02;;;;;;;8.82;4.60;;;5.50;99.90;;;5.53;92.52;100726.94;5115899;28;20493;-62
2022/12/08 06:00:35;;;;;;;9.00;4.30;;;5.40;99.90;;;5.56;92.37;100731.34;5116201;28;20054;-61
2022/12/08 06:03:03;;;;;;;7.47;4.67;;;5.50;99.90;;;5.53;93.02;100735.69;5116140;28;20050;-62
2022/12/08 06:05:32;;;;;;;6.63;4.15;;;5.40;99.90;;;5.63;93.01;100727.97;5116069;28;20069;-62
2022/12/08 06:08:02;;;;;;;5.60;4.23;;;5.50;99.90;;;5.56;93.70;100733.97;5116036;28;20043;-64
2022/12/08 06:10:31;;;;;;;5.75;4.30;;;5.40;99.90;;;5.59;94.11;100725.25;5116272;28;20051;-62
2022/12/08 06:12:59;;;;;;;5.32;4.80;;;5.40;99.90;;;5.59;94.62;100731.41;5116275;28;20066;-62
2022/12/08 06:15:28;;;;;;;4.13;3.80;;;5.40;99.90;;;5.75;94.59;100735.97;5115586;28;20079;-62
2022/12/08 06:17:56;;;;;;;4.40;3.88;;;5.50;99.90;;;5.68;93.97;100725.38;5115556;28;20031;-61
2022/12/08 06:20:24;;;;;;;6.03;4.40;;;5.50;99.90;;;5.72;94.10;100707.06;5115421;28;20040;-62
2022/12/08 06:22:54;;;;;;;4.63;4.22;;;5.60;99.90;;;6.01;93.55;100726.72;5115735;28;20039;-62
2022/12/08 06:25:24;;;;;;;8.13;4.35;;;5.80;99.90;;;6.08;93.03;100718.03;5115400;28;20486;-64
2022/12/08 06:27:52;;;;;;;6.95;4.53;;;5.90;99.90;;;6.22;92.67;100720.81;5115484;28;20044;-63
2022/12/08 06:30:21;;;;;;;5.50;5.03;;;6.10;99.90;;;6.23;92.25;100689.31;5115237;28;20055;-62
2022/12/08 06:32:49;;;;;;;5.30;4.10;;;6.20;99.90;;;6.46;91.76;100717.56;5115283;28;20536;-62
2022/12/08 06:35:18;;;;;;;6.78;3.85;;;6.30;99.90;;;6.59;91.64;100714.16;5115447;28;20048;-62
2022/12/08 06:37:46;;;;;;;4.65;4.22;;;6.50;99.90;;;6.73;90.88;100717.81;5115196;28;20134;-62
2022/12/08 06:40:14;;;;;;;5.32;4.45;;;6.60;99.90;;;6.84;90.41;100716.13;5115120;28;20039;-63
2022/12/08 06:42:46;;;;;;;6.28;4.28;;;6.70;99.90;;;6.86;90.26;100714.41;5115368;28;20473;-63
2022/12/08 06:45:17;;;;;;;6.85;4.18;;;6.70;99.90;;;6.99;89.52;100716.25;5115124;28;20044;-65
2022/12/08 06:47:45;;;;;;;5.20;4.40;;;6.80;99.90;;;7.07;89.16;100719.81;5114992;28;20118;-62
2022/12/08 06:50:14;;;;;;;5.82;3.95;;;6.90;99.90;;;7.17;88.95;100714.66;5114795;28;20043;-63
2022/12/08 06:52:44;;;;;;;5.45;4.05;;;7.00;99.90;;;7.24;88.59;100711.16;5115113;28;20482;-62
2022/12/08 06:55:30;;;;;;;4.55;3.90;;;7.10;99.90;;;7.30;88.09;100713.84;5114816;28;20573;-63
2022/12/08 06:58:20;;;;;;;4.53;4.13;;;7.20;99.90;;;7.21;87.16;100681.34;5114831;28;20047;-63
2022/12/08 07:00:48;;;;;;;5.47;4.22;;;7.20;99.90;;;7.39;87.42;100689.34;5114800;28;20130;-63
2022/12/08 07:03:17;;;;;;;4.45;3.72;;;7.20;99.90;;;7.41;87.43;100686.72;5114280;28;20062;-63
2022/12/08 07:05:45;;;;;;;4.00;3.63;;;7.20;99.90;;;7.37;86.72;100682.31;5115195;28;20136;-62
2022/12/08 07:08:13;;;;;;;5.85;3.95;;;7.20;99.90;;;7.44;86.57;100684.97;5114533;28;20109;-62
2022/12/08 07:10:42;;;;;;;4.40;3.50;;;7.30;99.90;;;7.49;86.20;100693.75;5114319;28;20507;-62
2022/12/08 07:13:10;;;;;;;5.63;3.72;;;7.30;99.90;;;7.29;85.58;100655.97;5114369;28;20051;-62
2022/12/08 07:15:40;;;;;;;4.15;3.70;;;7.30;99.90;;;7.57;85.91;100705.22;5114596;28;20397;-62
2022/12/08 07:18:08;;;;;;;7.22;3.72;;;7.40;99.90;;;7.54;85.71;100688.53;5114254;28;20032;-62
2022/12/08 07:20:37;;;;;;;6.57;3.70;;;7.40;99.90;;;7.52;84.95;100704.31;5096196;28;20552;-62
2022/12/08 07:23:05;;;;;;;4.47;4.03;;;7.30;99.90;;;7.51;84.79;100699.91;5114209;28;20035;-61
2022/12/08 07:25:34;;;;;;;5.50;4.22;;;7.30;99.90;;;7.37;84.72;100674.41;5114131;28;20554;-62
2022/12/08 07:28:07;;;;;;;4.85;3.97;;;7.30;99.90;;;7.48;84.49;100704.28;5114199;28;20039;-62
2022/12/08 07:30:36;;;;;;;4.68;4.05;;;7.30;99.90;;;7.28;84.42;100678.75;5114007;28;20146;-62
2022/12/08 07:33:06;;;;;;;4.38;3.97;;;7.20;99.90;;;7.39;84.42;100705.13;5114108;28;20043;-61
2022/12/08 07:35:34;;;;;;;5.13;3.60;;;7.20;99.90;;;7.40;84.13;100699.00;5114384;28;20133;-62
2022/12/08 07:38:03;;;;;;;5.95;3.88;;;7.20;99.90;;;6.67;83.95;100567.97;5113958;28;20485;-61
2022/12/08 07:40:31;;;;;;;4.60;4.05;;;7.20;99.90;;;7.27;84.01;100687.53;5114527;28;20051;-62
2022/12/08 07:42:59;;;;;;;4.43;4.05;;;7.10;99.90;;;7.29;83.98;100708.56;5113851;28;20124;-62
2022/12/08 07:45:27;;;;;;;4.75;4.18;;;7.10;99.90;;;7.31;83.98;100696.31;5114064;28;20112;-63
2022/12/08 07:47:59;;;;;;;4.43;4.10;;;7.00;99.90;;;7.35;83.91;100698.09;5113918;28;20043;-61
2022/12/08 07:50:28;;;;;;;6.15;3.83;;;7.10;99.90;;;7.28;83.95;100696.28;5095470;28;20051;-63
2022/12/08 07:52:57;;;;;;;6.97;3.63;;;7.00;99.90;;;7.26;83.87;100692.75;5114026;28;20035;-63
2022/12/08 07:55:25;;;;;;;7.43;4.00;;;7.00;99.90;;;7.20;83.88;100692.75;5114030;28;20109;-63
2022/12/08 07:57:54;;;;;;;4.20;3.70;;;7.00;99.90;;;7.15;83.84;100689.19;5113718;28;20039;-62
2022/12/08 08:00:23;;;;;;;5.35;4.57;;;6.90;99.90;;;7.12;84.28;100684.78;5113573;28;20043;-62
2022/12/08 08:02:51;;;;;;;4.93;4.35;;;6.90;99.90;;;7.12;84.29;100679.53;5113656;28;20039;-61
2022/12/08 08:05:19;;;;;;;4.47;4.05;;;6.90;99.90;;;7.14;84.46;100687.44;5113824;28;20142;-62
2022/12/08 08:07:49;;;;;;;4.35;4.07;;;6.90;99.90;;;7.10;84.58;100683.91;5113406;28;20481;-62
2022/12/08 08:10:18;;;;;;;4.85;4.40;;;6.90;99.90;;;7.10;84.84;100677.78;5095324;28;20044;-63
2022/12/08 08:12:46;;;;;;;4.75;4.28;;;6.80;99.90;;;7.03;84.38;100689.09;5095530;28;20142;-62
2022/12/08 08:15:16;;;;;;;4.68;4.18;;;6.80;99.90;;;7.05;84.60;100692.63;5113398;28;20059;-62
2022/12/08 08:17:44;;;;;;;4.55;4.22;;;6.80;99.90;;;7.07;84.67;100688.25;5113471;28;20050;-62
2022/12/08 08:20:14;;;;;;;5.43;4.10;;;6.90;99.90;;;7.13;84.37;100693.56;5113792;28;20138;-62
2022/12/08 08:22:42;;;;;;;6.30;5.07;;;6.90;99.90;;;7.09;84.48;100694.41;5113476;28;20043;-62
2022/12/08 08:25:12;;;;;;;4.97;4.47;;;6.90;99.90;;;7.07;84.56;100689.16;5113417;28;20039;-63
2022/12/08 08:27:40;;;;;;;5.77;4.23;;;6.80;99.90;;;7.08;84.28;100687.41;5113423;28;20078;-63
2022/12/08 08:30:11;;;;;;;5.90;4.55;;;6.80;99.90;;;7.11;84.29;100692.66;5113014;28;20302;-62
2022/12/08 08:32:47;;;;;;;4.72;4.25;;;6.90;99.90;;;7.20;84.52;100696.25;5095388;28;20051;-63
2022/12/08 08:35:16;;;;;;;7.50;4.25;;;6.90;99.90;;;7.08;84.33;100690.03;5113302;28;20085;-62
2022/12/08 08:37:45;;;;;;;4.68;3.95;;;6.90;99.90;;;6.79;84.87;100715.22;5113195;28;20550;-63
2022/12/08 08:40:18;;;;;;;4.05;3.70;;;6.70;99.90;;;5.76;86.45;100719.38;5113284;28;20608;-63
2022/12/08 08:42:46;;;;;;;4.95;4.50;;;5.90;99.90;;;5.32;87.08;100715.28;5113490;28;20130;-63
2022/12/08 08:45:15;;;;;;;8.70;4.40;;;5.30;99.90;;;4.52;88.00;100706.16;5113510;28;20048;-62
2022/12/08 08:47:43;;;;;;;6.47;4.10;;;4.70;99.90;;;4.77;88.83;100728.41;5113419;28;20127;-64
2022/12/08 08:50:12;;;;;;;4.87;4.43;;;4.60;99.90;;;4.67;89.63;100722.13;5113095;28;20035;-64
2022/12/08 08:52:41;;;;;;;5.65;4.47;;;4.60;99.90;;;4.59;90.36;100727.22;5113154;28;20046;-64
2022/12/08 08:55:10;;;;;;;7.70;4.30;;;4.40;99.90;;;4.72;89.86;100730.06;5113358;28;20443;-64
2022/12/08 08:57:40;;;;;;;6.70;4.83;;;4.50;99.90;;;4.59;90.01;100729.84;5113394;28;20044;-64
2022/12/08 09:00:12;;;;;;;5.73;4.20;;;4.40;99.90;;;4.28;90.81;100713.56;5113572;28;20043;-64
2022/12/08 09:02:40;;;;;;;6.28;4.82;;;4.30;99.90;;;4.33;91.18;100736.38;5094796;28;20062;-64
2022/12/08 09:05:09;;;;;;;4.30;4.00;;;4.30;99.90;;;4.65;91.31;100739.56;5112922;28;20050;-64
2022/12/08 09:07:37;;;;;;;6.63;4.30;;;4.50;99.90;;;4.88;90.67;100732.94;5113017;28;20035;-65
2022/12/08 09:10:08;;;;;;;4.10;3.70;;;4.70;99.90;;;5.10;89.89;100734.16;5113276;28;20389;-64
2022/12/08 09:12:36;;;;;;;4.82;4.18;;;4.90;99.90;;;4.76;89.04;100695.22;5112933;28;20035;-64
2022/12/08 09:15:07;;;;;;;4.97;4.43;;;4.90;99.90;;;5.16;89.33;100735.16;5112892;28;20485;-64
2022/12/08 09:17:37;;;;;;;4.57;4.00;;;5.00;99.90;;;5.32;89.53;100724.00;5112912;28;20046;-64
2022/12/08 09:20:07;;;;;;;4.40;4.00;;;5.20;99.90;;;5.45;89.23;100719.84;5112866;28;20050;-65
2022/12/08 09:22:36;;;;;;;4.63;4.20;;;5.40;99.90;;;5.58;88.77;100715.63;5094918;28;20473;-64
2022/12/08 09:25:05;;;;;;;4.15;3.85;;;5.50;99.90;;;5.58;88.14;100723.50;5094827;28;20055;-65
2022/12/08 09:27:33;;;;;;;4.53;4.13;;;5.50;99.90;;;5.63;87.21;100725.34;5116418;28;20047;-65
2022/12/08 09:30:02;;;;;;;4.20;3.90;;;5.50;99.90;;;5.68;87.32;100721.00;5116259;28;20118;-64
2022/12/08 09:32:32;;;;;;;5.90;4.60;;;5.60;99.90;;;5.59;87.02;100699.03;5097915;28;20051;-64
2022/12/08 09:35:01;;;;;;;4.97;4.60;;;5.60;99.90;;;5.67;86.49;100703.50;5116425;28;20485;-65
2022/12/08 09:37:29;;;;;;;5.80;4.10;;;5.70;99.90;;;5.88;86.15;100723.94;5098319;28;20043;-64
2022/12/08 09:39:59;;;;;;;3.80;3.50;;;5.70;99.90;;;5.91;86.10;100729.19;5116724;28;20066;-65
2022/12/08 09:42:41;;;;;;;4.57;4.18;;;5.70;99.90;;;5.94;86.07;100709.09;5116269;28;20050;-65
2022/12/08 09:45:13;;;;;;;5.00;4.25;;;5.80;99.90;;;5.96;85.75;100707.38;5116886;28;20131;-65
2022/12/08 09:47:58;;;;;;;4.30;3.97;;;5.80;99.90;;;6.02;85.56;100709.22;5116134;28;20043;-65
2022/12/08 09:50:33;;;;;;;4.10;3.80;;;5.80;99.90;;;6.00;85.16;100698.69;5098165;28;20043;-65
2022/12/08 09:53:09;;;;;;;5.03;3.95;;;5.90;99.90;;;6.08;85.07;100698.75;5116418;28;20066;-66
2022/12/08 09:55:44;;;;;;;5.43;4.13;;;5.90;99.90;;;6.09;84.87;100687.41;5116420;28;20118;-65
2022/12/08 09:58:21;;;;;;;4.25;3.75;;;6.00;99.90;;;5.92;84.84;100684.59;5116081;28;20044;-65
2022/12/08 10:00:50;;;;;;;4.28;3.80;;;5.90;99.90;;;6.09;85.23;100708.41;5116017;28;20504;-64
2022/12/08 10:03:22;;;;;;;4.13;3.70;;;5.90;99.90;;;6.14;85.64;100710.22;5115901;28;20109;-64
2022/12/08 10:06:02;;;;;;;4.40;4.10;;;6.00;99.90;;;6.16;85.54;100713.75;5116027;28;20114;-64
2022/12/08 10:08:43;;;;;;;4.50;4.20;;;6.10;99.90;;;6.16;86.14;100726.88;5116057;28;20473;-64
2022/12/08 10:11:20;;;;;;;5.20;4.30;;;6.10;99.90;;;6.14;85.89;100707.59;5115835;28;20074;-65
2022/12/08 10:13:55;;;;;;;4.35;3.95;;;6.10;99.90;;;6.30;86.32;100745.41;5115962;28;20046;-66
2022/12/08 10:16:33;;;;;;;4.30;3.95;;;6.10;99.90;;;6.17;86.49;100749.66;5115678;28;20477;-66
2022/12/08 10:19:15;;;;;;;4.07;3.70;;;5.90;99.90;;;6.21;86.66;100725.16;5097529;28;20485;-64
2022/12/08 10:21:45;;;;;;;4.88;4.47;;;6.00;99.90;;;6.30;86.58;100717.41;5097421;28;20450;-65
2022/12/08 10:24:23;;;;;;;4.55;4.15;;;6.10;99.90;;;6.36;86.35;100722.72;5115504;28;20032;-65
2022/12/08 10:26:51;;;;;;;4.63;4.22;;;6.20;99.90;;;6.01;86.59;100668.06;5115501;28;20039;-65
2022/12/08 10:29:19;;;;;;;5.00;3.75;;;6.10;99.90;;;6.44;86.51;100700.91;5115354;28;20473;-64
2022/12/08 10:31:48;;;;;;;4.38;4.07;;;6.20;99.90;;;6.20;85.43;100686.66;5115070;28;20043;-64
2022/12/08 10:34:23;;;;;;;5.05;4.05;;;6.30;99.90;;;6.36;85.61;100699.09;5115649;28;20085;-64
2022/12/08 10:36:54;;;;;;;5.75;4.28;;;6.20;99.90;;;6.39;85.77;100698.22;5114552;28;20451;-64
2022/12/08 10:39:36;;;;;;;4.18;3.88;;;6.30;99.90;;;6.46;85.69;100701.78;5115422;28;20100;-64
2022/12/08 10:42:19;;;;;;;4.20;3.90;;;6.30;99.90;;;6.52;85.82;100707.09;5115208;28;20047;-63
2022/12/08 10:44:58;;;;;;;4.30;3.90;;;6.40;99.90;;;6.56;85.53;100693.13;5115490;28;20134;-64
2022/12/08 10:47:29;;;;;;;4.63;4.20;;;6.40;99.90;;;6.42;84.96;100673.72;5114970;28;20493;-64
2022/12/08 10:50:32;;;;;;;6.10;3.40;;;6.30;99.90;;;6.19;84.75;100661.25;5115332;28;20039;-64